createdAt,value
2023-05-21T00:02:35.864Z,13.36
2023-05-21T00:07:37.668Z,13.12
2023-05-21T00:12:39.381Z,12.76
2023-05-21T00:17:41.128Z,13.02
2023-05-21T00:22:43.844Z,12.85
2023-05-21T00:27:45.574Z,12.54
2023-05-21T00:32:47.589Z,12.49
2023-05-21T00:37:50.151Z,12.56
2023-05-21T00:42:53.638Z,12.62
2023-05-21T00:47:55.897Z,12.57
2023-05-21T00:52:59.745Z,12.53
2023-05-21T00:58:01.496Z,12.74
2023-05-21T01:03:04.582Z,12.71
2023-05-21T01:08:07.670Z,12.87
2023-05-21T01:13:09.740Z,12.54
2023-05-21T01:18:14.355Z,12.35
2023-05-21T01:23:20.093Z,12.43
2023-05-21T01:28:22.199Z,12.56
2023-05-21T01:33:32.235Z,12.31
2023-05-21T01:38:41.335Z,12.29
2023-05-21T01:43:45.646Z,12.24
2023-05-21T01:48:49.042Z,12.15
2023-05-21T01:53:50.803Z,11.98
2023-05-21T01:58:52.757Z,11.95
2023-05-21T02:03:54.519Z,11.88
2023-05-21T02:08:56.601Z,11.83
2023-05-21T02:13:58.815Z,11.80
2023-05-21T02:19:00.709Z,11.93
2023-05-21T02:24:02.600Z,12.04
2023-05-21T02:29:04.458Z,11.79
2023-05-21T02:34:08.141Z,11.99
2023-05-21T02:39:09.933Z,11.83
2023-05-21T02:44:11.919Z,12.07
2023-05-21T02:49:13.714Z,11.89
2023-05-21T02:54:17.748Z,11.68
2023-05-21T02:59:19.579Z,11.97
2023-05-21T03:04:21.856Z,11.66
2023-05-21T03:09:24.315Z,11.60
2023-05-21T03:14:26.097Z,11.45
2023-05-21T03:19:30.537Z,11.55
2023-05-21T03:24:33.151Z,11.79
2023-05-21T03:29:37.638Z,11.82
2023-05-21T03:34:41.401Z,11.73
2023-05-21T03:39:43.534Z,11.52
2023-05-21T03:44:45.965Z,11.48
2023-05-21T03:50:05.778Z,11.61
2023-05-21T03:55:08.209Z,11.58
2023-05-21T04:00:10.893Z,11.40
2023-05-21T04:05:18.733Z,11.48
2023-05-21T04:10:20.736Z,11.69
2023-05-21T04:15:24.661Z,11.91
2023-05-21T04:20:26.650Z,12.49
2023-05-21T04:25:28.601Z,12.48
2023-05-21T04:30:30.577Z,12.53
2023-05-21T04:35:32.390Z,12.47
2023-05-21T04:40:36.702Z,12.61
2023-05-21T04:45:39.105Z,12.95
2023-05-21T04:50:41.613Z,13.22
2023-05-21T04:55:43.457Z,13.56
2023-05-21T05:00:51.626Z,13.71
2023-05-21T05:05:53.859Z,14.12
2023-05-21T05:10:55.871Z,14.95
2023-05-21T05:15:57.598Z,15.28
2023-05-21T05:20:59.659Z,15.41
2023-05-21T05:26:01.735Z,15.66
2023-05-21T05:31:03.728Z,16.10
2023-05-21T05:36:07.461Z,16.31
2023-05-21T05:41:09.598Z,16.44
2023-05-21T05:46:11.425Z,16.72
2023-05-21T05:51:15.474Z,17.03
2023-05-21T05:56:17.561Z,18.11
2023-05-21T06:01:20.363Z,18.93
2023-05-21T06:06:22.356Z,19.16
2023-05-21T06:11:24.174Z,19.47
2023-05-21T06:16:25.964Z,19.52
2023-05-21T06:21:28.216Z,19.99
2023-05-21T06:26:30.859Z,19.88
2023-05-21T06:31:34.005Z,19.77
2023-05-21T06:36:35.846Z,19.50
2023-05-21T06:41:37.533Z,19.49
2023-05-21T06:46:58.825Z,19.82
2023-05-21T06:52:00.549Z,20.15
2023-05-21T06:57:02.510Z,20.31
2023-05-21T07:02:06.611Z,20.52
2023-05-21T07:07:08.717Z,20.44
2023-05-21T07:12:10.926Z,20.51
2023-05-21T07:17:12.793Z,20.47
2023-05-21T07:22:14.812Z,20.64
2023-05-21T07:27:25.344Z,20.97
2023-05-21T07:32:29.458Z,21.37
2023-05-21T07:37:31.849Z,21.58
2023-05-21T07:42:35.739Z,22.08
2023-05-21T07:47:38.555Z,22.06
2023-05-21T07:52:40.653Z,22.58
2023-05-21T07:57:42.971Z,22.82
2023-05-21T08:02:50.506Z,23.12
2023-05-21T08:07:52.768Z,23.38
2023-05-21T08:12:55.457Z,23.35
2023-05-21T08:17:57.859Z,23.52
2023-05-21T08:23:00.918Z,23.75
2023-05-21T08:28:07.201Z,23.67
2023-05-21T08:33:10.005Z,23.83
2023-05-21T08:38:11.906Z,24.25
2023-05-21T08:43:21.194Z,24.71
2023-05-21T08:48:24.514Z,24.82
2023-05-21T08:53:29.619Z,25.32
2023-05-21T08:58:33.787Z,25.59
2023-05-21T09:03:39.748Z,25.83
2023-05-21T09:08:48.072Z,25.81
2023-05-21T09:13:56.331Z,26.00
2023-05-21T09:19:04.965Z,26.34
2023-05-21T09:24:11.148Z,26.78
2023-05-21T09:29:13.702Z,27.02
2023-05-21T09:34:15.945Z,27.07
2023-05-21T09:39:30.036Z,27.26
2023-05-21T09:44:35.562Z,27.53
2023-05-21T09:49:38.057Z,28.05
2023-05-21T09:54:40.110Z,27.51
2023-05-21T09:59:43.139Z,27.25
2023-05-21T10:04:49.214Z,27.91
2023-05-21T10:09:53.614Z,27.73
2023-05-21T10:15:01.320Z,28.24
2023-05-21T10:20:04.943Z,28.31
2023-05-21T10:25:10.108Z,28.48
2023-05-21T10:30:11.809Z,29.04
2023-05-21T10:35:16.340Z,29.08
2023-05-21T10:40:18.255Z,28.75
2023-05-21T10:45:46.606Z,28.23
2023-05-21T10:51:03.757Z,27.92
2023-05-21T10:56:33.462Z,28.08
2023-05-21T11:01:38.014Z,28.01
2023-05-21T11:06:39.852Z,28.09
2023-05-21T11:11:48.380Z,28.12
2023-05-21T11:16:50.285Z,28.21
2023-05-21T11:21:52.224Z,28.62
2023-05-21T11:26:58.599Z,28.85
2023-05-21T11:32:05.514Z,28.75
2023-05-21T11:37:29.280Z,29.18
2023-05-21T11:42:35.521Z,28.92
2023-05-21T11:47:37.361Z,29.23
2023-05-21T11:52:40.620Z,28.92
2023-05-21T11:57:48.218Z,28.76
2023-05-21T12:02:53.812Z,29.44
2023-05-21T12:07:56.701Z,28.67
2023-05-21T12:12:58.745Z,28.55
2023-05-21T12:18:01.341Z,28.40
2023-05-21T12:23:03.181Z,28.30
2023-05-21T12:28:05.443Z,28.12
2023-05-21T12:33:07.283Z,27.65
2023-05-21T12:38:09.792Z,27.35
2023-05-21T12:43:11.739Z,26.60
2023-05-21T12:48:13.512Z,26.75
2023-05-21T12:53:15.318Z,26.85
2023-05-21T12:58:22.153Z,26.89
2023-05-21T13:03:23.865Z,26.65
2023-05-21T13:08:25.868Z,26.67
2023-05-21T13:13:27.558Z,27.29
2023-05-21T13:18:29.445Z,27.91
2023-05-21T13:23:31.227Z,28.22
2023-05-21T13:28:32.948Z,27.63
2023-05-21T13:33:34.795Z,27.38
2023-05-21T13:38:36.658Z,27.51
2023-05-21T13:43:42.012Z,27.10
2023-05-21T13:48:44.137Z,27.14
2023-05-21T13:53:45.886Z,26.90
2023-05-21T13:58:47.746Z,26.54
2023-05-21T14:03:49.489Z,26.44
2023-05-21T14:08:51.332Z,25.94
2023-05-21T14:13:53.618Z,26.00
2023-05-21T14:18:57.006Z,26.10
2023-05-21T14:23:58.837Z,26.28
2023-05-21T14:29:00.640Z,26.58
2023-05-21T14:34:06.956Z,26.72
2023-05-21T14:39:08.670Z,26.86
2023-05-21T14:44:10.426Z,27.34
2023-05-21T14:49:12.789Z,27.62
2023-05-21T14:54:14.789Z,27.66
2023-05-21T14:59:16.881Z,26.94
2023-05-21T15:04:19.014Z,26.43
2023-05-21T15:09:20.965Z,26.35
2023-05-21T15:14:22.699Z,26.52
2023-05-21T15:19:24.512Z,26.17
2023-05-21T15:24:26.290Z,26.69
2023-05-21T15:29:28.204Z,26.49
2023-05-21T15:34:29.919Z,26.10
2023-05-21T15:39:31.774Z,26.36
2023-05-21T15:44:33.670Z,25.94
2023-05-21T15:49:35.610Z,26.23
2023-05-21T15:54:37.265Z,26.16
2023-05-21T15:59:38.962Z,26.07
2023-05-21T16:04:40.675Z,25.97
2023-05-21T16:09:42.380Z,25.84
2023-05-21T16:14:44.113Z,25.58
2023-05-21T16:19:45.854Z,25.57
2023-05-21T16:24:48.252Z,25.67
2023-05-21T16:29:50.018Z,25.68
2023-05-21T16:34:51.695Z,25.59
2023-05-21T16:39:53.412Z,25.62
2023-05-21T16:44:55.071Z,25.46
2023-05-21T16:49:56.831Z,25.32
2023-05-21T16:54:58.564Z,25.06
2023-05-21T17:00:01.861Z,24.84
2023-05-21T17:05:03.812Z,24.67
2023-05-21T17:10:06.377Z,24.62
2023-05-21T17:15:08.507Z,24.55
2023-05-21T17:20:10.898Z,24.29
2023-05-21T17:25:12.624Z,24.23
2023-05-21T17:30:14.360Z,24.15
2023-05-21T17:35:16.033Z,24.09
2023-05-21T17:40:20.305Z,24.00
2023-05-21T17:45:22.031Z,23.91
2023-05-21T17:50:23.764Z,23.82
2023-05-21T17:55:25.657Z,23.66
2023-05-21T18:00:27.317Z,23.61
2023-05-21T18:05:29.035Z,23.47
2023-05-21T18:10:30.784Z,23.33
2023-05-21T18:15:33.212Z,23.15
2023-05-21T18:20:35.286Z,23.05
2023-05-21T18:25:37.761Z,22.90
2023-05-21T18:30:39.614Z,22.73
2023-05-21T18:35:43.260Z,22.67
2023-05-21T18:40:45.882Z,22.66
2023-05-21T18:45:47.616Z,22.33
2023-05-21T18:50:49.453Z,22.24
2023-05-21T18:55:51.350Z,21.95
2023-05-21T19:00:53.071Z,21.76
2023-05-21T19:05:55.060Z,21.81
2023-05-21T19:10:56.779Z,21.44
2023-05-21T19:15:58.693Z,21.25
2023-05-21T19:21:00.491Z,21.48
2023-05-21T19:26:02.805Z,21.20
2023-05-21T19:31:04.542Z,20.99
2023-05-21T19:36:06.660Z,21.23
2023-05-21T19:41:08.317Z,21.03
2023-05-21T19:46:10.240Z,21.20
2023-05-21T19:51:12.147Z,20.92
2023-05-21T19:56:14.192Z,20.91
2023-05-21T20:01:16.697Z,20.88
2023-05-21T20:06:20.570Z,20.68
2023-05-21T20:11:22.625Z,20.47
2023-05-21T20:16:24.732Z,20.44
2023-05-21T20:21:26.600Z,20.46
2023-05-21T20:26:28.300Z,19.93
2023-05-21T20:31:30.393Z,20.01
2023-05-21T20:36:33.909Z,19.56
2023-05-21T20:41:37.700Z,19.40
2023-05-21T20:46:39.629Z,19.22
2023-05-21T20:51:41.472Z,19.19
2023-05-21T20:56:45.049Z,19.12
2023-05-21T21:01:46.933Z,19.05
2023-05-21T21:06:50.252Z,18.71
2023-05-21T21:11:51.961Z,18.32
2023-05-21T21:16:53.698Z,18.48
2023-05-21T21:21:55.881Z,18.22
2023-05-21T21:26:57.803Z,17.98
2023-05-21T21:31:59.472Z,17.93
2023-05-21T21:37:01.174Z,17.89
2023-05-21T21:42:03.010Z,17.71
2023-05-21T21:47:05.358Z,17.64
2023-05-21T21:52:07.172Z,17.54
2023-05-21T21:57:08.997Z,17.33
2023-05-21T22:02:10.812Z,17.29
2023-05-21T22:07:18.079Z,17.63
2023-05-21T22:12:19.844Z,17.28
2023-05-21T22:17:21.650Z,17.33
2023-05-21T22:22:24.327Z,17.30
2023-05-21T22:27:26.143Z,17.01
2023-05-21T22:32:27.944Z,16.87
2023-05-21T22:37:29.984Z,16.78
2023-05-21T22:42:32.480Z,16.86
2023-05-21T22:47:37.087Z,16.67
2023-05-21T22:52:39.317Z,16.58
2023-05-21T22:57:41.172Z,16.54
2023-05-21T23:02:42.941Z,16.27
2023-05-21T23:07:44.743Z,16.28
2023-05-21T23:12:46.478Z,16.13
2023-05-21T23:17:48.382Z,16.00
2023-05-21T23:22:50.154Z,16.13
2023-05-21T23:27:51.901Z,15.99
2023-05-21T23:32:53.679Z,15.88
2023-05-21T23:37:55.602Z,15.82
2023-05-21T23:42:57.432Z,15.66
2023-05-21T23:47:59.177Z,15.66
2023-05-21T23:53:00.924Z,15.92
2023-05-21T23:58:04.023Z,15.56
